Terminal Aerodrome Forecast
Issued by NWS

Home | Current Version | Previous Version | Graphics & Text | Print | Product List | Glossary On
Versions: 1 2 3 4 5 6 7 8 9 10 11 12 13 14
019
FTUS42 KMHX 251751
TAFISO
TAF
KISO 251751Z 2518/2618 21006KT P6SM VCSH BKN035
     FM252200 26006KT P6SM BKN025
     FM260200 28005KT P6SM BKN015
     FM260400 28005KT P6SM BKN007
     FM260700 28005KT P6SM BKN010
     FM261300 29005KT P6SM SCT015
      AMD LTD TO CLD VIS AND WIND=

USA.gov is the U.S. government's official web portal to all federal, state and local government web resources and services.